sensor_id;sensor_type;location;lat;lon;timestamp;pressure;altitude;pressure_sealevel;temperature;humidity
34081;BME280;20358;50.272;19.026;2022-11-15T00:02:08;98594.91;;;9.04;69.49
34081;BME280;20358;50.272;19.026;2022-11-15T00:04:33;98592.94;;;9.09;70.15
34081;BME280;20358;50.272;19.026;2022-11-15T00:06:59;98590.47;;;9.06;69.76
34081;BME280;20358;50.272;19.026;2022-11-15T00:09:25;98593.19;;;9.03;69.65
34081;BME280;20358;50.272;19.026;2022-11-15T00:11:51;98586.44;;;8.99;69.33
34081;BME280;20358;50.272;19.026;2022-11-15T00:14:16;98577.94;;;8.94;69.35
34081;BME280;20358;50.272;19.026;2022-11-15T00:16:45;98585.78;;;8.94;70.13
34081;BME280;20358;50.272;19.026;2022-11-15T00:19:11;98584.84;;;8.95;69.74
34081;BME280;20358;50.272;19.026;2022-11-15T00:21:36;98573.72;;;8.92;70.16
34081;BME280;20358;50.272;19.026;2022-11-15T00:24:04;98572.72;;;8.94;69.89
34081;BME280;20358;50.272;19.026;2022-11-15T00:26:30;98576.09;;;8.96;70.20
34081;BME280;20358;50.272;19.026;2022-11-15T00:28:55;98571.00;;;8.93;69.67
34081;BME280;20358;50.272;19.026;2022-11-15T00:31:23;98574.69;;;8.89;69.66
34081;BME280;20358;50.272;19.026;2022-11-15T00:33:51;98568.66;;;8.87;70.25
34081;BME280;20358;50.272;19.026;2022-11-15T00:36:16;98568.81;;;8.84;69.83
34081;BME280;20358;50.272;19.026;2022-11-15T00:38:42;98560.25;;;8.81;69.68
34081;BME280;20358;50.272;19.026;2022-11-15T00:41:07;98549.03;;;8.79;70.17
34081;BME280;20358;50.272;19.026;2022-11-15T00:43:32;98561.38;;;8.75;69.88
34081;BME280;20358;50.272;19.026;2022-11-15T00:45:59;98544.00;;;8.74;70.27
34081;BME280;20358;50.272;19.026;2022-11-15T00:48:24;98544.00;;;8.74;69.99
34081;BME280;20358;50.272;19.026;2022-11-15T00:50:52;98537.31;;;8.67;70.57
34081;BME280;20358;50.272;19.026;2022-11-15T00:53:18;98529.06;;;8.57;70.13
34081;BME280;20358;50.272;19.026;2022-11-15T00:55:44;98544.63;;;8.59;70.71
34081;BME280;20358;50.272;19.026;2022-11-15T00:58:09;98539.53;;;8.56;69.95
34081;BME280;20358;50.272;19.026;2022-11-15T01:00:35;98538.13;;;8.49;71.33
34081;BME280;20358;50.272;19.026;2022-11-15T01:03:03;98536.44;;;8.48;71.13
34081;BME280;20358;50.272;19.026;2022-11-15T01:05:28;98546.09;;;8.46;70.74
34081;BME280;20358;50.272;19.026;2022-11-15T01:07:57;98539.31;;;8.42;70.16
34081;BME280;20358;50.272;19.026;2022-11-15T01:10:24;98540.22;;;8.41;70.80
34081;BME280;20358;50.272;19.026;2022-11-15T01:12:50;98532.34;;;8.42;70.72
34081;BME280;20358;50.272;19.026;2022-11-15T01:15:16;98535.84;;;8.41;70.72
34081;BME280;20358;50.272;19.026;2022-11-15T01:17:42;98527.25;;;8.39;70.51
34081;BME280;20358;50.272;19.026;2022-11-15T01:20:10;98529.25;;;8.33;69.91
34081;BME280;20358;50.272;19.026;2022-11-15T01:22:36;98523.38;;;8.28;69.70
34081;BME280;20358;50.272;19.026;2022-11-15T01:25:07;98459.03;;;7.86;70.66
34081;BME280;20358;50.272;19.026;2022-11-15T01:27:32;98523.59;;;8.23;70.99
34081;BME280;20358;50.272;19.026;2022-11-15T01:29:58;98520.13;;;8.23;70.69
34081;BME280;20358;50.272;19.026;2022-11-15T01:32:24;98512.28;;;8.23;70.82
34081;BME280;20358;50.272;19.026;2022-11-15T01:34:49;98507.06;;;8.23;70.79
34081;BME280;20358;50.272;19.026;2022-11-15T01:37:15;98507.03;;;8.24;70.62
34081;BME280;20358;50.272;19.026;2022-11-15T01:39:40;98506.03;;;8.27;70.27
34081;BME280;20358;50.272;19.026;2022-11-15T01:42:11;98499.88;;;8.28;70.81
34081;BME280;20358;50.272;19.026;2022-11-15T01:44:43;98500.94;;;8.24;69.87
34081;BME280;20358;50.272;19.026;2022-11-15T01:47:15;98496.91;;;8.17;70.76
34081;BME280;20358;50.272;19.026;2022-11-15T01:49:51;98491.09;;;8.10;69.94
34081;BME280;20358;50.272;19.026;2022-11-15T01:52:25;98482.81;;;8.01;70.96
34081;BME280;20358;50.272;19.026;2022-11-15T01:55:00;98487.16;;;8.00;70.78
34081;BME280;20358;50.272;19.026;2022-11-15T01:57:31;98480.31;;;7.97;70.08
34081;BME280;20358;50.272;19.026;2022-11-15T02:00:00;98475.09;;;7.97;70.24
34081;BME280;20358;50.272;19.026;2022-11-15T02:02:28;98470.78;;;7.96;70.11
34081;BME280;20358;50.272;19.026;2022-11-15T02:04:54;98476.81;;;7.99;70.75
34081;BME280;20358;50.272;19.026;2022-11-15T02:07:22;98475.88;;;8.00;71.41
34081;BME280;20358;50.272;19.026;2022-11-15T02:09:48;98470.53;;;8.03;70.09
34081;BME280;20358;50.272;19.026;2022-11-15T02:12:18;98467.03;;;8.04;70.76
34081;BME280;20358;50.272;19.026;2022-11-15T02:14:52;98467.81;;;8.06;70.24
34081;BME280;20358;50.272;19.026;2022-11-15T02:17:36;98470.28;;;8.09;70.24
34081;BME280;20358;50.272;19.026;2022-11-15T02:20:37;98458.25;;;8.05;70.09
34081;BME280;20358;50.272;19.026;2022-11-15T02:23:37;98451.50;;;8.01;70.01
34081;BME280;20358;50.272;19.026;2022-11-15T02:26:48;98447.19;;;8.00;71.10
34081;BME280;20358;50.272;19.026;2022-11-15T02:30:00;98446.28;;;8.01;71.17
34081;BME280;20358;50.272;19.026;2022-11-15T02:32:45;98455.88;;;8.00;70.57
34081;BME280;20358;50.272;19.026;2022-11-15T02:35:27;98451.50;;;8.01;70.12
34081;BME280;20358;50.272;19.026;2022-11-15T02:38:10;98452.34;;;8.01;70.70
34081;BME280;20358;50.272;19.026;2022-11-15T02:40:52;98455.00;;;8.00;70.55
34081;BME280;20358;50.272;19.026;2022-11-15T02:43:39;98442.91;;;7.99;70.25
34081;BME280;20358;50.272;19.026;2022-11-15T02:46:29;98443.78;;;7.97;70.24
34081;BME280;20358;50.272;19.026;2022-11-15T02:49:15;98441.44;;;7.91;71.42
34081;BME280;20358;50.272;19.026;2022-11-15T02:51:45;98430.09;;;7.92;71.37
34081;BME280;20358;50.272;19.026;2022-11-15T02:54:17;98435.41;;;7.91;70.53
34081;BME280;20358;50.272;19.026;2022-11-15T02:56:50;98366.84;;;7.47;71.29
34081;BME280;20358;50.272;19.026;2022-11-15T02:59:36;98416.50;;;7.86;71.81
34081;BME280;20358;50.272;19.026;2022-11-15T03:02:41;98422.41;;;7.89;71.90
34081;BME280;20358;50.272;19.026;2022-11-15T03:05:25;98418.75;;;7.93;70.93
34081;BME280;20358;50.272;19.026;2022-11-15T03:08:06;98418.75;;;7.93;70.47
34081;BME280;20358;50.272;19.026;2022-11-15T03:10:44;98423.97;;;7.93;71.23
34081;BME280;20358;50.272;19.026;2022-11-15T03:13:27;98417.78;;;7.96;71.62
34081;BME280;20358;50.272;19.026;2022-11-15T03:16:06;98416.94;;;7.95;70.62
34081;BME280;20358;50.272;19.026;2022-11-15T03:18:41;98414.38;;;7.94;71.05
34081;BME280;20358;50.272;19.026;2022-11-15T03:21:15;98415.09;;;7.97;71.66
34081;BME280;20358;50.272;19.026;2022-11-15T03:23:49;98415.19;;;7.96;70.60
34081;BME280;20358;50.272;19.026;2022-11-15T03:26:22;98404.78;;;7.94;70.57
34081;BME280;20358;50.272;19.026;2022-11-15T03:28:55;98401.41;;;7.92;70.09
34081;BME280;20358;50.272;19.026;2022-11-15T03:31:31;98397.25;;;7.88;70.70
34081;BME280;20358;50.272;19.026;2022-11-15T03:34:22;98391.22;;;7.86;70.88
34081;BME280;20358;50.272;19.026;2022-11-15T03:36:54;98394.75;;;7.85;69.98
34081;BME280;20358;50.272;19.026;2022-11-15T03:39:21;98391.34;;;7.83;71.29
34081;BME280;20358;50.272;19.026;2022-11-15T03:41:59;98387.97;;;7.81;70.47
34081;BME280;20358;50.272;19.026;2022-11-15T03:44:42;98381.97;;;7.79;70.84
34081;BME280;20358;50.272;19.026;2022-11-15T03:47:18;98380.34;;;7.77;69.77
34081;BME280;20358;50.272;19.026;2022-11-15T03:49:55;98377.00;;;7.73;70.92
34081;BME280;20358;50.272;19.026;2022-11-15T03:52:25;98378.19;;;7.66;70.60
34081;BME280;20358;50.272;19.026;2022-11-15T03:54:54;98376.66;;;7.62;69.66
34081;BME280;20358;50.272;19.026;2022-11-15T03:57:20;98375.19;;;7.55;70.79
34081;BME280;20358;50.272;19.026;2022-11-15T03:59:46;98365.03;;;7.49;70.57
34081;BME280;20358;50.272;19.026;2022-11-15T04:02:12;98361.63;;;7.47;71.52
34081;BME280;20358;50.272;19.026;2022-11-15T04:04:38;98371.16;;;7.48;70.99
34081;BME280;20358;50.272;19.026;2022-11-15T04:07:06;98363.34;;;7.48;71.46
34081;BME280;20358;50.272;19.026;2022-11-15T04:09:33;98355.31;;;7.53;71.24
34081;BME280;20358;50.272;19.026;2022-11-15T04:12:18;98346.66;;;7.52;71.23
34081;BME280;20358;50.272;19.026;2022-11-15T04:14:53;98354.06;;;7.61;71.46
34081;BME280;20358;50.272;19.026;2022-11-15T04:17:31;98357.47;;;7.63;70.91
34081;BME280;20358;50.272;19.026;2022-11-15T04:19:57;98352.13;;;7.66;71.60
34081;BME280;20358;50.272;19.026;2022-11-15T04:22:40;98357.34;;;7.66;71.32
34081;BME280;20358;50.272;19.026;2022-11-15T04:25:23;98345.06;;;7.68;71.67
34081;BME280;20358;50.272;19.026;2022-11-15T04:27:53;98348.50;;;7.70;71.45
34081;BME280;20358;50.272;19.026;2022-11-15T04:30:18;98347.56;;;7.71;69.98
34081;BME280;20358;50.272;19.026;2022-11-15T04:32:44;98337.19;;;7.70;70.74
34081;BME280;20358;50.272;19.026;2022-11-15T04:35:09;98337.06;;;7.73;70.61
34081;BME280;20358;50.272;19.026;2022-11-15T04:37:34;98321.09;;;7.60;70.42
34081;BME280;20358;50.272;19.026;2022-11-15T04:40:00;98339.72;;;7.71;70.49
34081;BME280;20358;50.272;19.026;2022-11-15T04:42:27;98341.44;;;7.72;70.75
34081;BME280;20358;50.272;19.026;2022-11-15T04:44:52;98336.22;;;7.72;70.98
34081;BME280;20358;50.272;19.026;2022-11-15T04:47:18;98336.91;;;7.76;71.68
34081;BME280;20358;50.272;19.026;2022-11-15T04:49:43;98330.72;;;7.78;71.03
34081;BME280;20358;50.272;19.026;2022-11-15T04:52:09;98329.81;;;7.79;71.05
34081;BME280;20358;50.272;19.026;2022-11-15T04:54:35;98328.91;;;7.80;70.41
34081;BME280;20358;50.272;19.026;2022-11-15T04:57:05;98332.41;;;7.79;70.98
34081;BME280;20358;50.272;19.026;2022-11-15T04:59:30;98323.69;;;7.80;70.65
34081;BME280;20358;50.272;19.026;2022-11-15T05:01:56;98320.03;;;7.84;69.74
34081;BME280;20358;50.272;19.026;2022-11-15T05:04:22;98314.81;;;7.84;69.67
34081;BME280;20358;50.272;19.026;2022-11-15T05:06:45;98313.09;;;7.83;71.10
34081;BME280;20358;50.272;19.026;2022-11-15T05:09:12;98316.66;;;7.82;69.54
34081;BME280;20358;50.272;19.026;2022-11-15T05:11:38;98304.50;;;7.81;69.78
34081;BME280;20358;50.272;19.026;2022-11-15T05:14:06;98311.44;;;7.82;69.39
34081;BME280;20358;50.272;19.026;2022-11-15T05:16:33;98309.72;;;7.81;69.79
34081;BME280;20358;50.272;19.026;2022-11-15T05:18:58;98311.44;;;7.82;70.27
34081;BME280;20358;50.272;19.026;2022-11-15T05:21:24;98304.50;;;7.81;69.11
34081;BME280;20358;50.272;19.026;2022-11-15T05:23:51;98301.91;;;7.81;69.91
34081;BME280;20358;50.272;19.026;2022-11-15T05:26:18;98307.97;;;7.82;69.76
34081;BME280;20358;50.272;19.026;2022-11-15T05:28:44;98302.84;;;7.80;69.78
34081;BME280;20358;50.272;19.026;2022-11-15T05:31:15;98292.41;;;7.80;69.72
34081;BME280;20358;50.272;19.026;2022-11-15T05:33:43;98290.78;;;7.78;69.92
34081;BME280;20358;50.272;19.026;2022-11-15T05:36:15;98289.16;;;7.75;69.15
34081;BME280;20358;50.272;19.026;2022-11-15T05:38:48;98224.75;;;7.39;69.36
34081;BME280;20358;50.272;19.026;2022-11-15T05:41:17;98285.03;;;7.70;68.79
34081;BME280;20358;50.272;19.026;2022-11-15T05:43:49;98273.91;;;7.66;69.11
34081;BME280;20358;50.272;19.026;2022-11-15T05:46:18;98276.50;;;7.66;69.53
34081;BME280;20358;50.272;19.026;2022-11-15T05:48:47;98274.97;;;7.62;69.33
34081;BME280;20358;50.272;19.026;2022-11-15T05:51:19;98261.31;;;7.56;68.83
34081;BME280;20358;50.272;19.026;2022-11-15T05:53:48;98276.63;;;7.63;69.48
34081;BME280;20358;50.272;19.026;2022-11-15T05:56:16;98266.41;;;7.59;68.51
34081;BME280;20358;50.272;19.026;2022-11-15T05:58:42;98272.34;;;7.62;69.79
34081;BME280;20358;50.272;19.026;2022-11-15T06:01:08;98272.34;;;7.62;69.04
34081;BME280;20358;50.272;19.026;2022-11-15T06:03:37;98270.78;;;7.58;68.91
34081;BME280;20358;50.272;19.026;2022-11-15T06:06:04;98272.59;;;7.56;69.28
34081;BME280;20358;50.272;19.026;2022-11-15T06:08:38;98272.59;;;7.56;69.89
34081;BME280;20358;50.272;19.026;2022-11-15T06:11:05;98273.47;;;7.57;69.80
34081;BME280;20358;50.272;19.026;2022-11-15T06:13:31;98274.31;;;7.57;68.75
34081;BME280;20358;50.272;19.026;2022-11-15T06:15:58;98279.38;;;7.60;69.20
34081;BME280;20358;50.272;19.026;2022-11-15T06:18:26;98278.38;;;7.63;69.39
34081;BME280;20358;50.272;19.026;2022-11-15T06:20:58;98280.00;;;7.65;70.02
34081;BME280;20358;50.272;19.026;2022-11-15T06:23:25;98278.97;;;7.69;68.75
34081;BME280;20358;50.272;19.026;2022-11-15T06:25:51;98283.13;;;7.73;68.75
34081;BME280;20358;50.272;19.026;2022-11-15T06:28:16;98283.75;;;7.78;68.65
34081;BME280;20358;50.272;19.026;2022-11-15T06:30:42;98281.97;;;7.80;69.08
34081;BME280;20358;50.272;19.026;2022-11-15T06:33:13;98283.50;;;7.84;69.28
34081;BME280;20358;50.272;19.026;2022-11-15T06:35:39;98286.13;;;7.84;69.59
34081;BME280;20358;50.272;19.026;2022-11-15T06:38:10;98286.88;;;7.86;69.62
34081;BME280;20358;50.272;19.026;2022-11-15T06:40:37;98291.97;;;7.89;68.97
34081;BME280;20358;50.272;19.026;2022-11-15T06:43:05;98303.03;;;7.94;69.51
34081;BME280;20358;50.272;19.026;2022-11-15T06:45:33;98297.78;;;7.96;70.04
34081;BME280;20358;50.272;19.026;2022-11-15T06:47:58;98255.63;;;7.66;69.40
34081;BME280;20358;50.272;19.026;2022-11-15T06:50:24;98306.94;;;8.05;69.09
34081;BME280;20358;50.272;19.026;2022-11-15T06:52:51;98295.81;;;8.01;69.70
34081;BME280;20358;50.272;19.026;2022-11-15T06:55:20;98304.91;;;8.11;68.60
34081;BME280;20358;50.272;19.026;2022-11-15T06:57:49;98299.59;;;8.13;69.32
34081;BME280;20358;50.272;19.026;2022-11-15T07:00:19;98315.25;;;8.13;68.76
34081;BME280;20358;50.272;19.026;2022-11-15T07:02:46;98308.19;;;8.15;68.03
34081;BME280;20358;50.272;19.026;2022-11-15T07:05:12;98311.59;;;8.17;67.80
34081;BME280;20358;50.272;19.026;2022-11-15T07:07:39;98309.78;;;8.19;68.27
34081;BME280;20358;50.272;19.026;2022-11-15T07:10:06;98311.31;;;8.23;68.09
34081;BME280;20358;50.272;19.026;2022-11-15T07:12:35;98299.06;;;8.25;67.88
34081;BME280;20358;50.272;19.026;2022-11-15T07:15:02;98294.66;;;8.25;67.89
34081;BME280;20358;50.272;19.026;2022-11-15T07:17:29;98295.50;;;8.26;68.18
34081;BME280;20358;50.272;19.026;2022-11-15T07:19:54;98289.44;;;8.25;67.95
34081;BME280;20358;50.272;19.026;2022-11-15T07:22:20;98294.38;;;8.31;68.70
34081;BME280;20358;50.272;19.026;2022-11-15T07:24:45;98296.09;;;8.32;68.89
34081;BME280;20358;50.272;19.026;2022-11-15T07:27:11;98295.09;;;8.35;68.64
34081;BME280;20358;50.272;19.026;2022-11-15T07:29:41;98299.34;;;8.37;68.06
34081;BME280;20358;50.272;19.026;2022-11-15T07:32:06;98286.19;;;8.39;67.81
34081;BME280;20358;50.272;19.026;2022-11-15T07:34:32;98296.34;;;8.45;68.47
34081;BME280;20358;50.272;19.026;2022-11-15T07:36:58;98289.06;;;8.51;67.67
34081;BME280;20358;50.272;19.026;2022-11-15T07:39:25;98286.94;;;8.59;67.90
34081;BME280;20358;50.272;19.026;2022-11-15T07:41:50;98277.97;;;8.65;68.47
34081;BME280;20358;50.272;19.026;2022-11-15T07:44:37;98277.69;;;8.71;67.56
34081;BME280;20358;50.272;19.026;2022-11-15T07:47:09;98279.25;;;8.75;67.30
34081;BME280;20358;50.272;19.026;2022-11-15T07:49:34;98280.81;;;8.79;67.12
34081;BME280;20358;50.272;19.026;2022-11-15T07:52:03;98282.19;;;8.86;67.97
34081;BME280;20358;50.272;19.026;2022-11-15T07:54:29;98281.91;;;8.92;67.92
34081;BME280;20358;50.272;19.026;2022-11-15T07:56:55;98284.34;;;8.95;67.44
34081;BME280;20358;50.272;19.026;2022-11-15T07:59:26;98280.59;;;9.01;67.34
34081;BME280;20358;50.272;19.026;2022-11-15T08:01:51;98284.66;;;9.06;66.79
34081;BME280;20358;50.272;19.026;2022-11-15T08:04:20;98281.00;;;9.10;66.67
34081;BME280;20358;50.272;19.026;2022-11-15T08:06:46;98272.16;;;9.13;66.42
34081;BME280;20358;50.272;19.026;2022-11-15T08:09:12;98270.22;;;9.16;66.20
34081;BME280;20358;50.272;19.026;2022-11-15T08:11:37;98264.97;;;9.16;66.14
34081;BME280;20358;50.272;19.026;2022-11-15T08:14:06;98269.16;;;9.21;66.62
34081;BME280;20358;50.272;19.026;2022-11-15T08:16:31;98265.53;;;9.23;66.85
34081;BME280;20358;50.272;19.026;2022-11-15T08:18:56;98268.75;;;9.28;67.25
34081;BME280;20358;50.272;19.026;2022-11-15T08:21:28;98264.19;;;9.32;66.72
34081;BME280;20358;50.272;19.026;2022-11-15T08:23:53;98265.59;;;9.39;66.67
34081;BME280;20358;50.272;19.026;2022-11-15T08:26:19;98266.22;;;9.44;66.78
34081;BME280;20358;50.272;19.026;2022-11-15T08:28:45;98265.09;;;9.48;66.28
34081;BME280;20358;50.272;19.026;2022-11-15T08:31:13;98270.94;;;9.53;66.54
34081;BME280;20358;50.272;19.026;2022-11-15T08:33:40;98264.66;;;9.57;66.30
34081;BME280;20358;50.272;19.026;2022-11-15T08:36:06;98267.25;;;9.57;65.86
34081;BME280;20358;50.272;19.026;2022-11-15T08:38:37;98265.56;;;9.56;65.59
34081;BME280;20358;50.272;19.026;2022-11-15T08:41:04;98254.19;;;9.57;66.15
34081;BME280;20358;50.272;19.026;2022-11-15T08:43:31;98263.84;;;9.55;66.03
34081;BME280;20358;50.272;19.026;2022-11-15T08:45:58;98259.56;;;9.54;65.95
34081;BME280;20358;50.272;19.026;2022-11-15T08:48:24;98263.09;;;9.53;66.42
34081;BME280;20358;50.272;19.026;2022-11-15T08:50:53;98257.88;;;9.53;66.48
34081;BME280;20358;50.272;19.026;2022-11-15T08:53:18;98259.56;;;9.54;66.78
34081;BME280;20358;50.272;19.026;2022-11-15T08:55:46;98268.28;;;9.54;67.17
34081;BME280;20358;50.272;19.026;2022-11-15T08:58:12;98262.34;;;9.51;66.78
34081;BME280;20358;50.272;19.026;2022-11-15T09:00:38;98261.59;;;9.49;66.83
34081;BME280;20358;50.272;19.026;2022-11-15T09:03:05;98261.63;;;9.47;67.00
34081;BME280;20358;50.272;19.026;2022-11-15T09:05:32;98258.22;;;9.47;67.10
34081;BME280;20358;50.272;19.026;2022-11-15T09:07:59;98258.22;;;9.47;67.32
34081;BME280;20358;50.272;19.026;2022-11-15T09:10:50;98243.28;;;9.49;67.53
34081;BME280;20358;50.272;19.026;2022-11-15T09:13:17;98243.19;;;9.50;67.25
34081;BME280;20358;50.272;19.026;2022-11-15T09:15:43;98242.28;;;9.51;67.29
34081;BME280;20358;50.272;19.026;2022-11-15T09:18:09;98240.31;;;9.55;67.40
34081;BME280;20358;50.272;19.026;2022-11-15T09:20:34;98244.22;;;9.63;67.43
34081;BME280;20358;50.272;19.026;2022-11-15T09:23:00;98237.84;;;9.69;67.49
34081;BME280;20358;50.272;19.026;2022-11-15T09:25:29;98230.44;;;9.77;67.53
34081;BME280;20358;50.272;19.026;2022-11-15T09:27:57;98228.41;;;9.82;67.36
34081;BME280;20358;50.272;19.026;2022-11-15T09:30:24;98220.25;;;9.88;67.58
34081;BME280;20358;50.272;19.026;2022-11-15T09:32:51;98213.91;;;9.92;67.24
34081;BME280;20358;50.272;19.026;2022-11-15T09:35:16;98210.97;;;9.98;67.61
34081;BME280;20358;50.272;19.026;2022-11-15T09:37:42;98213.06;;;10.07;67.42
34081;BME280;20358;50.272;19.026;2022-11-15T09:40:14;98209.94;;;10.16;67.45
34081;BME280;20358;50.272;19.026;2022-11-15T09:43:11;98200.72;;;10.25;67.67
34081;BME280;20358;50.272;19.026;2022-11-15T09:46:08;98205.50;;;10.34;67.44
34081;BME280;20358;50.272;19.026;2022-11-15T09:48:49;98045.09;;;9.54;67.39
34081;BME280;20358;50.272;19.026;2022-11-15T09:51:30;98190.50;;;10.52;67.63
34081;BME280;20358;50.272;19.026;2022-11-15T09:53:47;98183.97;;;10.59;67.51
34081;BME280;20358;50.272;19.026;2022-11-15T09:56:20;98153.25;;;10.47;67.52
34081;BME280;20358;50.272;19.026;2022-11-15T09:58:38;98181.25;;;10.76;67.20
34081;BME280;20358;50.272;19.026;2022-11-15T10:00:53;98165.13;;;10.82;66.81
34081;BME280;20358;50.272;19.026;2022-11-15T10:03:09;98165.63;;;10.88;66.98
34081;BME280;20358;50.272;19.026;2022-11-15T10:05:23;98168.66;;;10.96;66.60
34081;BME280;20358;50.272;19.026;2022-11-15T10:07:42;98155.09;;;11.04;67.35
34081;BME280;20358;50.272;19.026;2022-11-15T10:10:04;98150.13;;;11.14;66.74
34081;BME280;20358;50.272;19.026;2022-11-15T10:12:22;98151.25;;;11.24;66.28
34081;BME280;20358;50.272;19.026;2022-11-15T10:14:36;98147.97;;;11.34;66.06
34081;BME280;20358;50.272;19.026;2022-11-15T10:17:18;98155.19;;;11.45;66.17
34081;BME280;20358;50.272;19.026;2022-11-15T10:19:47;98147.41;;;11.57;66.43
34081;BME280;20358;50.272;19.026;2022-11-15T10:22:27;98147.44;;;11.72;65.89
34081;BME280;20358;50.272;19.026;2022-11-15T10:24:41;98141.22;;;11.87;65.73
34081;BME280;20358;50.272;19.026;2022-11-15T10:26:50;98096.63;;;11.73;64.93
34081;BME280;20358;50.272;19.026;2022-11-15T10:28:57;98131.78;;;12.11;63.67
34081;BME280;20358;50.272;19.026;2022-11-15T10:31:22;98132.56;;;12.25;63.56
34081;BME280;20358;50.272;19.026;2022-11-15T10:33:32;98135.97;;;12.40;63.22
34081;BME280;20358;50.272;19.026;2022-11-15T10:35:42;98123.38;;;12.45;62.79
34081;BME280;20358;50.272;19.026;2022-11-15T10:37:50;98136.28;;;12.62;63.14
34081;BME280;20358;50.272;19.026;2022-11-15T10:40:04;98124.94;;;12.74;62.55
34081;BME280;20358;50.272;19.026;2022-11-15T10:42:17;98127.88;;;12.82;62.00
34081;BME280;20358;50.272;19.026;2022-11-15T10:44:42;98122.06;;;12.92;61.42
34081;BME280;20358;50.272;19.026;2022-11-15T10:47:24;98126.88;;;12.98;62.26
34081;BME280;20358;50.272;19.026;2022-11-15T10:49:54;98127.13;;;13.07;61.72
34081;BME280;20358;50.272;19.026;2022-11-15T10:52:17;98119.63;;;13.14;60.85
34081;BME280;20358;50.272;19.026;2022-11-15T10:54:37;98118.25;;;13.08;61.29
34081;BME280;20358;50.272;19.026;2022-11-15T10:56:51;98112.16;;;13.08;60.65
34081;BME280;20358;50.272;19.026;2022-11-15T10:58:59;98110.03;;;13.13;61.31
34081;BME280;20358;50.272;19.026;2022-11-15T11:01:12;98107.72;;;13.21;61.54
34081;BME280;20358;50.272;19.026;2022-11-15T11:03:35;98111.53;;;13.29;60.53
34081;BME280;20358;50.272;19.026;2022-11-15T11:05:44;98114.66;;;13.34;61.31
34081;BME280;20358;50.272;19.026;2022-11-15T11:07:56;98111.72;;;13.39;60.82
34081;BME280;20358;50.272;19.026;2022-11-15T11:10:20;98107.22;;;13.41;61.29
34081;BME280;20358;50.272;19.026;2022-11-15T11:12:47;98107.94;;;13.43;59.71
34081;BME280;20358;50.272;19.026;2022-11-15T11:14:54;98108.34;;;13.37;59.69
34081;BME280;20358;50.272;19.026;2022-11-15T11:17:10;98107.09;;;13.30;60.11
34081;BME280;20358;50.272;19.026;2022-11-15T11:19:46;98104.81;;;13.25;59.68
34081;BME280;20358;50.272;19.026;2022-11-15T11:22:09;98108.25;;;13.26;60.57
34081;BME280;20358;50.272;19.026;2022-11-15T11:24:32;98103.09;;;13.24;59.94
34081;BME280;20358;50.272;19.026;2022-11-15T11:26:53;98095.41;;;13.21;60.77
34081;BME280;20358;50.272;19.026;2022-11-15T11:29:31;98094.34;;;13.36;60.43
34081;BME280;20358;50.272;19.026;2022-11-15T11:31:58;98086.44;;;13.49;60.76
34081;BME280;20358;50.272;19.026;2022-11-15T11:34:29;98079.03;;;13.54;60.03
34081;BME280;20358;50.272;19.026;2022-11-15T11:37:00;98075.91;;;13.62;59.81
34081;BME280;20358;50.272;19.026;2022-11-15T11:39:26;98072.06;;;13.66;60.11
34081;BME280;20358;50.272;19.026;2022-11-15T11:41:51;98074.16;;;13.73;59.24
34081;BME280;20358;50.272;19.026;2022-11-15T11:44:17;97951.50;;;13.11;59.52
34081;BME280;20358;50.272;19.026;2022-11-15T11:46:48;98064.84;;;13.93;59.96
34081;BME280;20358;50.272;19.026;2022-11-15T11:49:01;98065.72;;;14.04;59.99
34081;BME280;20358;50.272;19.026;2022-11-15T11:51:23;98059.81;;;14.14;59.58
34081;BME280;20358;50.272;19.026;2022-11-15T11:53:41;98061.03;;;14.21;59.44
34081;BME280;20358;50.272;19.026;2022-11-15T11:55:56;98052.00;;;14.36;58.88
34081;BME280;20358;50.272;19.026;2022-11-15T11:58:17;98048.91;;;14.42;58.26
34081;BME280;20358;50.272;19.026;2022-11-15T12:00:37;98042.84;;;14.52;58.91
34081;BME280;20358;50.272;19.026;2022-11-15T12:03:02;98042.38;;;14.69;58.18
34081;BME280;20358;50.272;19.026;2022-11-15T12:05:22;98046.84;;;14.80;57.15
34081;BME280;20358;50.272;19.026;2022-11-15T12:07:43;98039.41;;;14.85;57.27
34081;BME280;20358;50.272;19.026;2022-11-15T12:09:58;98043.00;;;14.84;56.05
34081;BME280;20358;50.272;19.026;2022-11-15T12:12:13;98037.22;;;14.79;55.93
34081;BME280;20358;50.272;19.026;2022-11-15T12:14:33;98010.59;;;14.71;56.08
34081;BME280;20358;50.272;19.026;2022-11-15T12:16:53;98028.25;;;14.82;55.76
34081;BME280;20358;50.272;19.026;2022-11-15T12:19:01;98019.75;;;14.89;56.17
34081;BME280;20358;50.272;19.026;2022-11-15T12:21:18;98017.09;;;14.89;55.95
34081;BME280;20358;50.272;19.026;2022-11-15T12:23:42;98012.31;;;14.94;56.47
34081;BME280;20358;50.272;19.026;2022-11-15T12:25:58;98007.78;;;14.96;55.73
34081;BME280;20358;50.272;19.026;2022-11-15T12:28:17;98015.19;;;15.02;56.01
34081;BME280;20358;50.272;19.026;2022-11-15T12:30:44;98015.31;;;15.01;55.55
34081;BME280;20358;50.272;19.026;2022-11-15T12:32:57;98003.56;;;15.05;55.67
34081;BME280;20358;50.272;19.026;2022-11-15T12:35:26;98003.72;;;15.14;55.75
34081;BME280;20358;50.272;19.026;2022-11-15T12:37:54;98010.19;;;15.21;55.14
34081;BME280;20358;50.272;19.026;2022-11-15T12:40:22;98006.34;;;15.25;55.42
34081;BME280;20358;50.272;19.026;2022-11-15T12:42:41;98002.50;;;15.29;55.35
34081;BME280;20358;50.272;19.026;2022-11-15T12:45:00;97994.13;;;15.36;55.09
34081;BME280;20358;50.272;19.026;2022-11-15T12:47:23;97994.59;;;15.41;54.76
34081;BME280;20358;50.272;19.026;2022-11-15T12:49:47;97988.56;;;15.39;54.59
34081;BME280;20358;50.272;19.026;2022-11-15T12:52:06;97989.88;;;15.33;54.15
34081;BME280;20358;50.272;19.026;2022-11-15T12:57:32;97976.56;;;15.46;54.71
34081;BME280;20358;50.272;19.026;2022-11-15T12:59:48;97977.03;;;15.51;54.38
34081;BME280;20358;50.272;19.026;2022-11-15T13:01:59;97970.53;;;15.55;54.97
34081;BME280;20358;50.272;19.026;2022-11-15T13:04:21;97966.69;;;15.59;55.00